Elliott, South Carolina
Current Conditions -  °F | °C
As of 6:15 PM on Tuesday 27 Jan 2015 (Local Time) from KSMS Reporting Station
Few Clouds Few Clouds  
Wind Chill: 45°   Ceiling: Unl
Heat Index: 45°   Visibility: 10mi
Dew Point: 25°   Wind: 3mph
Humidity: 46%   Direction: 280°W
Pressure: 29.92"   Gusts: NA
Location:  34.11°N, 80.16°W
Report Text: KSMS 272315Z AUTO 28003KT 10SM FEW060 07/M04 A2992 RMK AO2
Loading
Personal Weather Stations






























Interactive Weather Map New forecast layout! Learn more

10-Day Weather Forecast

Advertisements
Track Severe Weather on mobile